createdAt,value
2019-04-30T00:00:30.459Z,13.43
2019-04-30T00:01:27.523Z,13.47
2019-04-30T00:02:34.833Z,13.49
2019-04-30T00:03:27.487Z,13.39
2019-04-30T00:04:29.927Z,13.39
2019-04-30T00:05:27.446Z,13.39
2019-04-30T00:06:34.541Z,13.37
2019-04-30T00:07:27.413Z,13.40
2019-04-30T00:08:30.100Z,13.33
2019-04-30T00:09:27.373Z,13.43
2019-04-30T00:10:35.904Z,13.40
2019-04-30T00:11:27.349Z,13.33
2019-04-30T00:12:30.954Z,13.36
2019-04-30T00:13:27.299Z,13.36
2019-04-30T00:14:32.149Z,13.40
2019-04-30T00:15:27.263Z,13.31
2019-04-30T00:16:30.886Z,13.31
2019-04-30T00:17:27.226Z,13.42
2019-04-30T00:18:30.854Z,13.37
2019-04-30T00:19:27.187Z,13.37
2019-04-30T00:20:29.999Z,13.39
2019-04-30T00:21:27.150Z,13.39
2019-04-30T00:22:33.775Z,13.36
2019-04-30T00:23:30.657Z,13.36
2019-04-30T00:24:27.092Z,13.36
2019-04-30T00:25:28.639Z,13.31
2019-04-30T00:26:27.056Z,13.31
2019-04-30T00:27:30.190Z,13.30
2019-04-30T00:28:27.016Z,13.31
2019-04-30T00:29:30.891Z,13.33
2019-04-30T00:30:26.984Z,13.30
2019-04-30T00:31:27.568Z,13.33
2019-04-30T00:32:26.942Z,13.36
2019-04-30T00:33:27.735Z,13.24
2019-04-30T00:34:30.842Z,13.31
2019-04-30T00:35:26.890Z,13.31
2019-04-30T00:36:33.513Z,13.30
2019-04-30T00:37:26.910Z,13.31
2019-04-30T00:38:29.605Z,13.31
2019-04-30T00:39:27.268Z,13.36
2019-04-30T00:40:30.152Z,13.28
2019-04-30T00:41:26.775Z,13.36
2019-04-30T00:42:28.714Z,13.37
2019-04-30T00:43:26.738Z,13.30
2019-04-30T00:44:28.316Z,13.36
2019-04-30T00:45:26.704Z,13.31
2019-04-30T00:46:29.289Z,13.27
2019-04-30T00:47:26.661Z,13.31
2019-04-30T00:48:31.012Z,13.31
2019-04-30T00:49:26.749Z,13.30
2019-04-30T00:50:29.017Z,13.24
2019-04-30T00:51:26.590Z,13.33
2019-04-30T00:52:29.577Z,13.31
2019-04-30T00:53:26.561Z,13.27
2019-04-30T00:54:29.350Z,13.24
2019-04-30T00:55:26.512Z,13.21
2019-04-30T00:56:28.139Z,13.24
2019-04-30T00:57:26.568Z,13.19
2019-04-30T00:58:30.308Z,13.19
2019-04-30T00:59:26.438Z,13.16
2019-04-30T01:00:29.659Z,13.13
2019-04-30T01:01:26.399Z,13.16
2019-04-30T01:02:31.772Z,13.13
2019-04-30T01:03:26.364Z,13.17
2019-04-30T01:04:28.115Z,13.16
2019-04-30T01:05:27.074Z,13.26
2019-04-30T01:06:28.646Z,13.19
2019-04-30T01:07:26.575Z,13.19
2019-04-30T01:08:28.607Z,13.19
2019-04-30T01:09:26.250Z,13.20
2019-04-30T01:10:28.324Z,13.19
2019-04-30T01:11:26.213Z,13.16
2019-04-30T01:12:31.069Z,13.16
2019-04-30T01:13:26.174Z,13.12
2019-04-30T01:14:28.348Z,13.16
2019-04-30T01:15:26.139Z,13.20
2019-04-30T01:16:30.221Z,13.17
2019-04-30T01:17:26.099Z,13.16
2019-04-30T01:18:30.601Z,13.09
2019-04-30T01:19:29.893Z,13.11
2019-04-30T01:20:31.075Z,13.06
2019-04-30T01:21:26.024Z,13.03
2019-04-30T01:22:32.544Z,13.08
2019-04-30T01:23:25.986Z,13.05
2019-04-30T01:24:28.394Z,13.09
2019-04-30T01:25:25.948Z,13.06
2019-04-30T01:26:27.694Z,13.08
2019-04-30T01:27:25.912Z,13.02
2019-04-30T01:28:25.893Z,13.11
2019-04-30T01:29:25.873Z,13.06
2019-04-30T01:30:25.856Z,13.12
2019-04-30T01:31:25.839Z,13.03
2019-04-30T01:32:25.816Z,13.12
2019-04-30T01:33:28.444Z,13.05
2019-04-30T01:34:25.780Z,13.03
2019-04-30T01:35:30.907Z,13.12
2019-04-30T01:36:25.742Z,13.05
2019-04-30T01:37:29.584Z,13.08
2019-04-30T01:38:25.703Z,13.05
2019-04-30T01:39:30.039Z,13.03
2019-04-30T01:40:25.665Z,12.99
2019-04-30T01:41:27.362Z,13.03
2019-04-30T01:42:25.645Z,13.05
2019-04-30T01:43:31.555Z,13.05
2019-04-30T01:44:25.592Z,13.05
2019-04-30T01:45:28.126Z,13.05
2019-04-30T01:46:25.561Z,12.99
2019-04-30T01:47:27.643Z,13.02
2019-04-30T01:48:25.519Z,12.95
2019-04-30T01:49:26.671Z,12.99
2019-04-30T01:50:25.484Z,12.84
2019-04-30T01:51:25.460Z,12.95
2019-04-30T01:52:31.048Z,12.90
2019-04-30T01:53:25.423Z,12.83
2019-04-30T01:54:25.413Z,12.87
2019-04-30T01:55:25.384Z,12.88
2019-04-30T01:56:25.364Z,12.84
2019-04-30T01:57:25.356Z,12.87
2019-04-30T01:58:25.326Z,12.84
2019-04-30T01:59:25.311Z,12.90
2019-04-30T02:00:25.288Z,12.86
2019-04-30T02:01:25.270Z,12.83
2019-04-30T02:02:25.254Z,12.86
2019-04-30T02:03:25.233Z,12.91
2019-04-30T02:04:25.214Z,12.84
2019-04-30T02:05:25.194Z,12.84
2019-04-30T02:06:25.185Z,12.90
2019-04-30T02:07:25.157Z,12.84
2019-04-30T02:08:25.137Z,12.84
2019-04-30T02:09:25.118Z,12.81
2019-04-30T02:10:25.101Z,12.76
2019-04-30T02:11:25.081Z,12.73
2019-04-30T02:12:25.096Z,12.69
2019-04-30T02:13:25.042Z,12.76
2019-04-30T02:14:25.024Z,12.72
2019-04-30T02:15:25.005Z,12.70
2019-04-30T02:16:24.986Z,12.70
2019-04-30T02:17:24.967Z,12.72
2019-04-30T02:18:24.952Z,12.65
2019-04-30T02:19:24.934Z,12.62
2019-04-30T02:20:24.914Z,12.62
2019-04-30T02:21:24.891Z,12.61
2019-04-30T02:22:24.873Z,12.61
2019-04-30T02:23:24.853Z,12.61
2019-04-30T02:24:24.834Z,12.61
2019-04-30T02:25:24.814Z,12.63
2019-04-30T02:26:24.795Z,12.61
2019-04-30T02:27:24.777Z,12.63
2019-04-30T02:28:24.770Z,12.58
2019-04-30T02:29:24.738Z,12.61
2019-04-30T02:30:24.722Z,12.57
2019-04-30T02:31:24.712Z,12.54
2019-04-30T02:32:24.681Z,12.54
2019-04-30T02:33:24.663Z,12.61
2019-04-30T02:34:24.661Z,12.53
2019-04-30T02:35:24.624Z,12.57
2019-04-30T02:36:24.606Z,12.61
2019-04-30T02:37:24.587Z,12.61
2019-04-30T02:38:24.568Z,12.50
2019-04-30T02:39:24.548Z,12.53
2019-04-30T02:40:24.528Z,12.47
2019-04-30T02:41:24.511Z,12.50
2019-04-30T02:42:24.490Z,12.53
2019-04-30T02:43:24.471Z,12.47
2019-04-30T02:44:24.457Z,12.58
2019-04-30T02:45:24.437Z,12.48
2019-04-30T02:46:24.419Z,12.50
2019-04-30T02:47:24.396Z,12.57
2019-04-30T02:48:24.377Z,12.53
2019-04-30T02:49:24.369Z,12.54
2019-04-30T02:50:24.343Z,12.48
2019-04-30T02:51:24.320Z,12.55
2019-04-30T02:52:24.302Z,12.61
2019-04-30T02:53:24.280Z,12.55
2019-04-30T02:54:24.657Z,12.55
2019-04-30T02:55:24.244Z,12.54
2019-04-30T02:56:26.600Z,12.54
2019-04-30T02:57:24.205Z,12.55
2019-04-30T02:58:24.186Z,12.57
2019-04-30T02:59:24.174Z,12.54
2019-04-30T03:00:24.151Z,12.53
2019-04-30T03:01:24.158Z,12.58
2019-04-30T03:02:24.117Z,12.61
2019-04-30T03:03:25.254Z,12.54
2019-04-30T03:04:24.075Z,12.55
2019-04-30T03:05:24.051Z,12.54
2019-04-30T03:06:24.039Z,12.50
2019-04-30T03:07:24.019Z,12.54
2019-04-30T03:08:23.997Z,12.51
2019-04-30T03:09:23.981Z,12.57
2019-04-30T03:10:23.964Z,12.61
2019-04-30T03:11:23.937Z,12.61
2019-04-30T03:12:23.924Z,12.50
2019-04-30T03:13:23.899Z,12.51
2019-04-30T03:14:23.888Z,12.57
2019-04-30T03:15:23.860Z,12.54
2019-04-30T03:16:23.840Z,12.55
2019-04-30T03:17:23.828Z,12.57
2019-04-30T03:18:23.806Z,12.57
2019-04-30T03:19:23.786Z,12.51
2019-04-30T03:20:32.646Z,12.55
2019-04-30T03:21:23.750Z,12.51
2019-04-30T03:22:23.737Z,12.53
2019-04-30T03:23:23.710Z,12.51
2019-04-30T03:24:23.694Z,12.55
2019-04-30T03:25:23.666Z,12.57
2019-04-30T03:26:23.655Z,12.57
2019-04-30T03:27:24.832Z,12.61
2019-04-30T03:28:23.610Z,12.61
2019-04-30T03:29:24.159Z,12.57
2019-04-30T03:30:23.576Z,12.53
2019-04-30T03:31:23.558Z,12.45
2019-04-30T03:32:23.532Z,12.58
2019-04-30T03:33:23.515Z,12.58
2019-04-30T03:34:25.883Z,12.50
2019-04-30T03:35:23.489Z,12.58
2019-04-30T03:36:23.473Z,12.47
2019-04-30T03:37:23.438Z,12.58
2019-04-30T03:38:23.417Z,12.57
2019-04-30T03:39:23.408Z,12.45
2019-04-30T03:40:23.385Z,12.53
2019-04-30T03:41:23.360Z,12.50
2019-04-30T03:42:23.341Z,12.48
2019-04-30T03:43:23.323Z,12.54
2019-04-30T03:44:25.875Z,12.58
2019-04-30T03:45:23.283Z,12.50
2019-04-30T03:46:23.269Z,12.54
2019-04-30T03:47:23.249Z,12.54
2019-04-30T03:48:23.228Z,12.50
2019-04-30T03:49:23.207Z,12.53
2019-04-30T03:50:23.189Z,12.40
2019-04-30T03:51:23.169Z,12.40
2019-04-30T03:52:23.150Z,12.43
2019-04-30T03:53:23.128Z,12.39
2019-04-30T03:54:23.116Z,12.36
2019-04-30T03:55:24.967Z,12.36
2019-04-30T03:56:23.082Z,12.37
2019-04-30T03:57:23.052Z,12.37
2019-04-30T03:58:23.034Z,12.40
2019-04-30T03:59:23.018Z,12.44
2019-04-30T04:00:22.998Z,12.44
2019-04-30T04:01:22.975Z,12.44
2019-04-30T04:02:22.976Z,12.40
2019-04-30T04:03:22.937Z,12.29
2019-04-30T04:04:22.924Z,12.28
2019-04-30T04:05:22.899Z,12.30
2019-04-30T04:06:22.880Z,12.26
2019-04-30T04:07:22.865Z,12.28
2019-04-30T04:08:22.846Z,12.33
2019-04-30T04:09:22.829Z,12.26
2019-04-30T04:10:22.803Z,12.29
2019-04-30T04:11:22.788Z,12.26
2019-04-30T04:12:22.779Z,12.29
2019-04-30T04:13:22.745Z,12.26
2019-04-30T04:14:22.725Z,12.26
2019-04-30T04:15:22.708Z,12.20
2019-04-30T04:16:22.686Z,12.20
2019-04-30T04:17:22.665Z,12.11
2019-04-30T04:18:22.648Z,12.12
2019-04-30T04:19:22.627Z,12.15
2019-04-30T04:20:22.609Z,12.14
2019-04-30T04:21:22.592Z,12.10
2019-04-30T04:22:22.568Z,12.17
2019-04-30T04:23:22.549Z,12.11
2019-04-30T04:24:22.531Z,12.11
2019-04-30T04:25:22.511Z,12.05
2019-04-30T04:26:22.494Z,12.12
2019-04-30T04:27:22.551Z,12.07
2019-04-30T04:28:22.453Z,12.17
2019-04-30T04:29:22.435Z,12.12
2019-04-30T04:30:22.416Z,12.08
2019-04-30T04:31:22.395Z,12.12
2019-04-30T04:32:24.394Z,12.05
2019-04-30T04:33:22.354Z,12.11
2019-04-30T04:34:22.337Z,12.10
2019-04-30T04:35:22.316Z,12.10
2019-04-30T04:36:22.295Z,12.02
2019-04-30T04:37:22.309Z,12.14
2019-04-30T04:38:22.262Z,12.00
2019-04-30T04:39:22.238Z,12.00
2019-04-30T04:40:22.229Z,12.02
2019-04-30T04:41:22.198Z,11.89
2019-04-30T04:42:22.184Z,11.97
2019-04-30T04:43:22.161Z,11.97
2019-04-30T04:44:22.141Z,11.96
2019-04-30T04:45:22.123Z,11.99
2019-04-30T04:46:22.102Z,11.95
2019-04-30T04:47:22.091Z,11.96
2019-04-30T04:48:23.236Z,11.91
2019-04-30T04:49:22.050Z,11.86
2019-04-30T04:50:22.028Z,11.91
2019-04-30T04:51:36.687Z,11.89
2019-04-30T04:52:22.302Z,11.81
2019-04-30T04:53:21.968Z,11.83
2019-04-30T04:54:21.944Z,11.88
2019-04-30T04:55:22.373Z,11.89
2019-04-30T04:56:21.906Z,11.88
2019-04-30T04:57:22.925Z,11.78
2019-04-30T04:58:21.956Z,11.93
2019-04-30T04:59:21.850Z,11.86
2019-04-30T05:00:21.827Z,11.93
2019-04-30T05:01:21.806Z,11.85
2019-04-30T05:02:21.788Z,11.85
2019-04-30T05:03:21.774Z,11.78
2019-04-30T05:04:21.749Z,11.76
2019-04-30T05:05:21.729Z,11.76
2019-04-30T05:06:22.400Z,11.83
2019-04-30T05:07:21.691Z,11.78
2019-04-30T05:08:21.669Z,11.81
2019-04-30T05:09:21.651Z,11.77
2019-04-30T05:10:21.762Z,11.74
2019-04-30T05:11:21.611Z,11.77
2019-04-30T05:12:21.591Z,11.78
2019-04-30T05:13:21.576Z,11.80
2019-04-30T05:14:21.564Z,11.81
2019-04-30T05:15:21.536Z,11.74
2019-04-30T05:16:21.512Z,11.80
2019-04-30T05:17:21.490Z,11.74
2019-04-30T05:18:22.815Z,11.85
2019-04-30T05:19:21.452Z,11.77
2019-04-30T05:20:21.443Z,11.88
2019-04-30T05:21:21.411Z,11.80
2019-04-30T05:22:21.397Z,11.88
2019-04-30T05:23:21.821Z,11.85
2019-04-30T05:24:21.369Z,11.83
2019-04-30T05:25:21.336Z,11.85
2019-04-30T05:26:22.840Z,11.80
2019-04-30T05:27:21.298Z,11.78
2019-04-30T05:28:21.276Z,11.86
2019-04-30T05:29:21.256Z,11.86
2019-04-30T05:30:21.235Z,11.86
2019-04-30T05:31:21.255Z,11.83
2019-04-30T05:32:21.196Z,11.80
2019-04-30T05:33:21.176Z,11.81
2019-04-30T05:34:21.157Z,11.80
2019-04-30T05:35:21.309Z,11.85
2019-04-30T05:36:21.343Z,11.83
2019-04-30T05:37:22.494Z,11.86
2019-04-30T05:38:21.254Z,11.91
2019-04-30T05:39:21.241Z,11.78
2019-04-30T05:40:21.061Z,11.83
2019-04-30T05:41:21.143Z,11.83
2019-04-30T05:42:21.007Z,11.83
2019-04-30T05:43:21.249Z,11.83
2019-04-30T05:44:20.960Z,11.83
2019-04-30T05:45:20.951Z,11.95
2019-04-30T05:46:20.920Z,11.95
2019-04-30T05:47:20.904Z,11.89
2019-04-30T05:48:20.925Z,11.88
2019-04-30T05:49:20.861Z,11.96
2019-04-30T05:50:20.841Z,11.93
2019-04-30T05:51:21.373Z,11.95
2019-04-30T05:52:20.824Z,12.00
2019-04-30T05:53:20.785Z,11.96
2019-04-30T05:54:20.785Z,12.05
2019-04-30T05:55:20.768Z,12.11
2019-04-30T05:56:20.723Z,12.11
2019-04-30T05:57:20.706Z,12.14
2019-04-30T05:58:20.685Z,12.11
2019-04-30T05:59:20.741Z,12.21
2019-04-30T06:00:20.646Z,12.12
2019-04-30T06:01:20.625Z,12.23
2019-04-30T06:02:20.604Z,12.26
2019-04-30T06:03:28.061Z,12.23
2019-04-30T06:04:20.573Z,12.25
2019-04-30T06:05:20.553Z,12.21
2019-04-30T06:06:20.536Z,12.32
2019-04-30T06:07:20.507Z,12.32
2019-04-30T06:08:20.494Z,12.33
2019-04-30T06:09:31.008Z,12.33
2019-04-30T06:10:20.449Z,12.39
2019-04-30T06:11:20.432Z,12.33
2019-04-30T06:12:20.433Z,12.37
2019-04-30T06:13:20.390Z,12.29
2019-04-30T06:14:20.383Z,12.37
2019-04-30T06:15:20.357Z,12.39
2019-04-30T06:16:20.350Z,12.35
2019-04-30T06:17:20.321Z,12.48
2019-04-30T06:18:20.491Z,12.39
2019-04-30T06:19:20.275Z,12.44
2019-04-30T06:20:21.029Z,12.54
2019-04-30T06:21:21.588Z,12.54
2019-04-30T06:22:20.226Z,12.55
2019-04-30T06:23:20.194Z,12.45
2019-04-30T06:24:20.193Z,12.57
2019-04-30T06:25:31.019Z,12.57
2019-04-30T06:26:20.756Z,12.61
2019-04-30T06:27:20.140Z,12.62
2019-04-30T06:28:20.458Z,12.68
2019-04-30T06:29:20.389Z,12.78
2019-04-30T06:30:20.078Z,12.78
2019-04-30T06:31:31.937Z,12.83
2019-04-30T06:32:20.296Z,12.88
2019-04-30T06:33:20.349Z,12.98
2019-04-30T06:34:20.275Z,13.03
2019-04-30T06:35:20.431Z,13.05
2019-04-30T06:36:20.344Z,13.08
2019-04-30T06:37:20.087Z,13.13
2019-04-30T06:38:20.413Z,13.19
2019-04-30T06:39:20.323Z,13.12
2019-04-30T06:40:20.276Z,13.16
2019-04-30T06:41:20.841Z,13.21
2019-04-30T06:42:20.767Z,13.20
2019-04-30T06:43:20.241Z,13.30
2019-04-30T06:44:20.229Z,13.17
2019-04-30T06:45:20.237Z,13.26
2019-04-30T06:46:21.226Z,13.20
2019-04-30T06:47:32.367Z,13.33
2019-04-30T06:48:20.739Z,13.37
2019-04-30T06:49:19.709Z,13.39
2019-04-30T06:50:19.678Z,13.39
2019-04-30T06:51:19.657Z,13.33
2019-04-30T06:52:23.276Z,13.31
2019-04-30T06:53:19.641Z,13.37
2019-04-30T06:54:19.599Z,13.49
2019-04-30T06:55:19.585Z,13.37
2019-04-30T06:56:19.560Z,13.52
2019-04-30T06:57:19.993Z,13.55
2019-04-30T06:58:20.523Z,13.58
2019-04-30T06:59:20.332Z,13.57
2019-04-30T07:00:27.197Z,13.58
2019-04-30T07:01:19.465Z,13.64
2019-04-30T07:02:19.820Z,13.61
2019-04-30T07:03:19.430Z,13.64
2019-04-30T07:04:19.520Z,13.60
2019-04-30T07:05:19.411Z,13.47
2019-04-30T07:06:29.464Z,13.65
2019-04-30T07:07:22.978Z,13.52
2019-04-30T07:08:19.333Z,13.55
2019-04-30T07:09:19.689Z,13.64
2019-04-30T07:10:20.532Z,13.57
2019-04-30T07:11:19.574Z,13.58
2019-04-30T07:12:27.321Z,13.58
2019-04-30T07:13:19.241Z,13.47
2019-04-30T07:14:19.592Z,13.43
2019-04-30T07:15:19.734Z,13.42
2019-04-30T07:16:19.192Z,13.42
2019-04-30T07:17:19.583Z,13.45
2019-04-30T07:18:19.146Z,13.37
2019-04-30T07:19:30.056Z,13.55
2019-04-30T07:20:19.305Z,13.64
2019-04-30T07:21:19.813Z,13.61
2019-04-30T07:22:28.985Z,13.68
2019-04-30T07:23:19.052Z,13.64
2019-04-30T07:24:20.919Z,13.78
2019-04-30T07:25:19.477Z,13.73
2019-04-30T07:26:24.235Z,13.75
2019-04-30T07:27:23.748Z,13.83
2019-04-30T07:28:19.116Z,13.78
2019-04-30T07:29:19.616Z,13.79
2019-04-30T07:30:19.335Z,13.89
2019-04-30T07:31:19.366Z,13.85
2019-04-30T07:32:19.706Z,13.87
2019-04-30T07:33:20.797Z,13.86
2019-04-30T07:34:19.629Z,14.00
2019-04-30T07:35:19.503Z,14.00
2019-04-30T07:36:19.540Z,14.05
2019-04-30T07:37:24.247Z,14.05
2019-04-30T07:38:19.336Z,14.07
2019-04-30T07:39:19.233Z,14.20
2019-04-30T07:40:19.093Z,14.25
2019-04-30T07:41:19.060Z,14.30
2019-04-30T07:42:19.251Z,14.28
2019-04-30T07:43:19.057Z,14.28
2019-04-30T07:44:30.967Z,14.26
2019-04-30T07:45:19.482Z,14.25
2019-04-30T07:46:19.975Z,14.22
2019-04-30T07:47:19.521Z,14.28
2019-04-30T07:48:21.182Z,14.31
2019-04-30T07:49:20.590Z,14.31
2019-04-30T07:50:21.395Z,14.31
2019-04-30T07:51:20.956Z,14.31
2019-04-30T07:52:21.196Z,14.40
2019-04-30T07:53:18.837Z,14.36
2019-04-30T07:54:19.040Z,14.37
2019-04-30T07:55:19.638Z,14.30
2019-04-30T07:56:25.867Z,14.30
2019-04-30T07:57:19.309Z,14.31
2019-04-30T07:58:20.531Z,14.40
2019-04-30T07:59:20.160Z,14.36
2019-04-30T08:00:19.368Z,14.33
2019-04-30T08:01:19.586Z,14.30
2019-04-30T08:02:20.758Z,14.33
2019-04-30T08:03:20.486Z,14.33
2019-04-30T08:04:18.835Z,14.20
2019-04-30T08:05:19.869Z,14.25
2019-04-30T08:06:18.999Z,14.30
2019-04-30T08:07:19.942Z,14.22
2019-04-30T08:08:24.998Z,14.30
2019-04-30T08:09:19.625Z,14.18
2019-04-30T08:10:18.807Z,14.18
2019-04-30T08:11:25.571Z,14.22
2019-04-30T08:12:26.025Z,14.20
2019-04-30T08:13:21.240Z,14.15
2019-04-30T08:14:18.788Z,14.26
2019-04-30T08:15:19.780Z,14.30
2019-04-30T08:16:18.667Z,14.28
2019-04-30T08:17:18.852Z,14.28
2019-04-30T08:18:18.488Z,14.26
2019-04-30T08:19:19.101Z,14.33
2019-04-30T08:20:19.676Z,14.34
2019-04-30T08:21:19.031Z,14.31
2019-04-30T08:22:19.684Z,14.36
2019-04-30T08:23:33.429Z,14.26
2019-04-30T08:24:19.334Z,14.31
2019-04-30T08:25:19.851Z,14.41
2019-04-30T08:26:18.744Z,14.34
2019-04-30T08:27:19.672Z,14.51
2019-04-30T08:28:18.736Z,14.40
2019-04-30T08:29:19.498Z,14.51
2019-04-30T08:30:25.615Z,14.52
2019-04-30T08:31:19.559Z,14.51
2019-04-30T08:32:19.075Z,14.53
2019-04-30T08:33:19.376Z,14.61
2019-04-30T08:34:19.936Z,14.61
2019-04-30T08:35:19.544Z,14.67
2019-04-30T08:36:19.508Z,14.70
2019-04-30T08:37:20.088Z,14.71
2019-04-30T08:38:19.151Z,14.81
2019-04-30T08:39:19.625Z,14.77
2019-04-30T08:40:19.067Z,14.79
2019-04-30T08:41:19.297Z,14.74
2019-04-30T08:42:28.935Z,14.71
2019-04-30T08:43:17.579Z,14.74
2019-04-30T08:44:20.875Z,14.81
2019-04-30T08:45:19.514Z,14.78
2019-04-30T08:46:19.043Z,14.77
2019-04-30T08:47:18.831Z,14.78
2019-04-30T08:48:18.974Z,14.77
2019-04-30T08:49:19.260Z,14.85
2019-04-30T08:50:19.590Z,14.79
2019-04-30T08:51:19.009Z,14.87
2019-04-30T08:52:19.282Z,14.74
2019-04-30T08:53:27.521Z,14.94
2019-04-30T08:54:19.510Z,14.97
2019-04-30T08:55:19.713Z,14.99
2019-04-30T08:56:21.676Z,14.94
2019-04-30T08:57:19.098Z,15.02
2019-04-30T08:58:20.309Z,15.10
2019-04-30T08:59:19.183Z,15.08
2019-04-30T09:00:19.130Z,15.05
2019-04-30T09:01:19.317Z,15.14
2019-04-30T09:02:19.537Z,15.11
2019-04-30T09:03:19.328Z,15.04
2019-04-30T09:04:17.198Z,15.14
2019-04-30T09:05:18.542Z,15.22
2019-04-30T09:06:17.162Z,15.25
2019-04-30T09:07:17.141Z,15.35
2019-04-30T09:08:19.247Z,15.26
2019-04-30T09:09:18.803Z,15.41
2019-04-30T09:10:19.106Z,15.39
2019-04-30T09:11:25.169Z,15.41
2019-04-30T09:12:17.062Z,15.43
2019-04-30T09:13:19.054Z,15.43
2019-04-30T09:14:18.652Z,15.36
2019-04-30T09:15:18.736Z,15.37
2019-04-30T09:16:19.263Z,15.37
2019-04-30T09:17:16.966Z,15.45
2019-04-30T09:18:18.935Z,15.44
2019-04-30T09:19:16.929Z,15.39
2019-04-30T09:20:16.911Z,15.43
2019-04-30T09:21:18.666Z,15.47
2019-04-30T09:22:16.874Z,15.43
2019-04-30T09:23:18.646Z,15.39
2019-04-30T09:24:16.839Z,15.45
2019-04-30T09:25:16.830Z,15.37
2019-04-30T09:26:18.529Z,15.50
2019-04-30T09:27:16.822Z,15.59
2019-04-30T09:28:16.765Z,15.52
2019-04-30T09:29:16.747Z,15.63
2019-04-30T09:30:18.671Z,15.59
2019-04-30T09:31:16.715Z,15.69
2019-04-30T09:32:16.696Z,15.81
2019-04-30T09:33:16.681Z,15.78
2019-04-30T09:34:20.283Z,15.80
2019-04-30T09:35:16.642Z,15.84
2019-04-30T09:36:16.622Z,15.80
2019-04-30T09:37:18.518Z,15.85
2019-04-30T09:38:16.593Z,15.91
2019-04-30T09:39:16.578Z,16.02
2019-04-30T09:40:20.563Z,15.99
2019-04-30T09:41:16.540Z,16.05
2019-04-30T09:42:16.516Z,16.02
2019-04-30T09:43:18.291Z,16.12
2019-04-30T09:44:16.484Z,16.06
2019-04-30T09:45:16.466Z,16.18
2019-04-30T09:46:24.609Z,16.21
2019-04-30T09:47:16.432Z,16.21
2019-04-30T09:48:16.418Z,16.22
2019-04-30T09:49:16.395Z,16.18
2019-04-30T09:50:16.381Z,16.22
2019-04-30T09:51:16.755Z,16.25
2019-04-30T09:52:16.436Z,16.24
2019-04-30T09:53:16.334Z,16.25
2019-04-30T09:54:16.554Z,16.26
2019-04-30T09:55:16.290Z,16.37
2019-04-30T09:56:16.296Z,16.36
2019-04-30T09:57:16.259Z,16.31
2019-04-30T09:58:18.245Z,16.49
2019-04-30T09:59:16.227Z,16.49
2019-04-30T10:00:16.214Z,16.44
2019-04-30T10:01:16.193Z,16.41
2019-04-30T10:02:16.167Z,16.54
2019-04-30T10:03:16.726Z,16.50
2019-04-30T10:04:16.610Z,16.49
2019-04-30T10:05:17.457Z,16.54
2019-04-30T10:06:16.096Z,16.57
2019-04-30T10:07:16.083Z,16.59
2019-04-30T10:08:16.066Z,16.65
2019-04-30T10:09:16.049Z,16.72
2019-04-30T10:10:16.028Z,16.80
2019-04-30T10:11:16.019Z,16.80
2019-04-30T10:12:15.996Z,16.91
2019-04-30T10:13:15.980Z,16.91
2019-04-30T10:14:15.961Z,16.84
2019-04-30T10:15:15.945Z,16.89
2019-04-30T10:16:15.927Z,17.04
2019-04-30T10:17:15.909Z,16.89
2019-04-30T10:18:15.890Z,16.97
2019-04-30T10:19:15.874Z,16.98
2019-04-30T10:20:15.855Z,16.91
2019-04-30T10:21:15.837Z,16.84
2019-04-30T10:22:15.821Z,16.87
2019-04-30T10:23:15.807Z,16.84
2019-04-30T10:24:16.026Z,16.94
2019-04-30T10:25:15.770Z,16.99
2019-04-30T10:26:15.755Z,17.04
2019-04-30T10:27:15.736Z,17.13
2019-04-30T10:28:15.728Z,17.20
2019-04-30T10:29:15.705Z,17.20
2019-04-30T10:30:15.685Z,17.20
2019-04-30T10:31:15.678Z,17.34
2019-04-30T10:32:15.654Z,17.31
2019-04-30T10:33:15.639Z,17.32
2019-04-30T10:34:15.618Z,17.20
2019-04-30T10:35:15.617Z,17.32
2019-04-30T10:36:15.585Z,17.20
2019-04-30T10:37:15.567Z,17.31
2019-04-30T10:38:15.551Z,17.32
2019-04-30T10:39:15.533Z,17.37
2019-04-30T10:40:15.516Z,17.56
2019-04-30T10:41:15.517Z,17.47
2019-04-30T10:42:15.486Z,17.65
2019-04-30T10:43:15.481Z,17.75
2019-04-30T10:44:15.449Z,17.93
2019-04-30T10:45:15.433Z,17.94
2019-04-30T10:46:15.421Z,18.12
2019-04-30T10:47:15.405Z,18.12
2019-04-30T10:48:15.392Z,18.23
2019-04-30T10:49:15.381Z,18.23
2019-04-30T10:50:15.352Z,18.26
2019-04-30T10:51:15.340Z,18.28
2019-04-30T10:52:15.323Z,18.33
2019-04-30T10:53:15.299Z,18.48
2019-04-30T10:54:24.017Z,18.58
2019-04-30T10:55:15.273Z,18.63
2019-04-30T10:56:15.253Z,18.66
2019-04-30T10:57:15.236Z,18.76
2019-04-30T10:58:15.475Z,18.86
2019-04-30T10:59:15.202Z,18.98
2019-04-30T11:00:15.184Z,19.07
2019-04-30T11:01:15.172Z,19.08
2019-04-30T11:02:15.153Z,19.22
2019-04-30T11:03:19.919Z,19.30
2019-04-30T11:04:15.120Z,19.37
2019-04-30T11:05:15.108Z,19.27
2019-04-30T11:06:15.088Z,19.34
2019-04-30T11:07:15.076Z,19.37
2019-04-30T11:08:15.055Z,19.47
2019-04-30T11:09:15.039Z,19.52
2019-04-30T11:10:15.023Z,19.62
2019-04-30T11:11:15.009Z,19.72
2019-04-30T11:12:14.990Z,19.78
2019-04-30T11:13:14.986Z,19.81
2019-04-30T11:14:14.958Z,19.92
2019-04-30T11:15:14.961Z,20.18
2019-04-30T11:16:15.662Z,20.29
2019-04-30T11:17:15.065Z,20.52
2019-04-30T11:18:15.136Z,20.73
2019-04-30T11:19:15.065Z,21.19
2019-04-30T11:20:15.082Z,21.60
2019-04-30T11:21:14.979Z,21.85
2019-04-30T11:22:15.073Z,22.07
2019-04-30T11:23:15.334Z,22.26
2019-04-30T11:24:15.003Z,22.83
2019-04-30T11:25:14.999Z,23.20
2019-04-30T11:26:15.499Z,23.77
2019-04-30T11:27:15.421Z,24.21
2019-04-30T11:28:15.252Z,24.47
2019-04-30T11:29:14.927Z,24.61
2019-04-30T11:30:21.453Z,25.03
2019-04-30T11:31:14.865Z,25.21
2019-04-30T11:32:14.860Z,25.33
2019-04-30T11:33:14.934Z,25.61
2019-04-30T11:34:14.669Z,25.58
2019-04-30T11:35:14.651Z,25.93
2019-04-30T11:36:14.636Z,26.10
2019-04-30T11:37:14.622Z,26.37
2019-04-30T11:38:14.612Z,26.53
2019-04-30T11:39:14.604Z,26.67
2019-04-30T11:40:14.587Z,26.92
2019-04-30T11:41:14.578Z,27.05
2019-04-30T11:42:14.574Z,27.34
2019-04-30T11:43:14.558Z,27.40
2019-04-30T11:44:27.827Z,27.45
2019-04-30T11:45:14.541Z,27.50
2019-04-30T11:46:14.524Z,27.43
2019-04-30T11:47:14.514Z,27.48
2019-04-30T11:48:14.505Z,27.68
2019-04-30T11:49:14.494Z,27.68
2019-04-30T11:50:14.484Z,27.86
2019-04-30T11:51:14.477Z,28.04
2019-04-30T11:52:14.466Z,28.31
2019-04-30T11:53:25.335Z,28.19
2019-04-30T11:54:14.451Z,28.37
2019-04-30T11:55:14.457Z,28.52
2019-04-30T11:56:14.431Z,28.43
2019-04-30T11:57:14.422Z,28.60
2019-04-30T11:58:21.427Z,28.47
2019-04-30T11:59:14.406Z,28.68
2019-04-30T12:00:14.396Z,28.83
2019-04-30T12:01:14.388Z,28.84
2019-04-30T12:02:14.383Z,28.78
2019-04-30T12:03:14.371Z,28.96
2019-04-30T12:04:14.364Z,29.15
2019-04-30T12:05:14.375Z,29.25
2019-04-30T12:06:14.350Z,29.35
2019-04-30T12:07:14.340Z,29.42
2019-04-30T12:08:14.335Z,29.52
2019-04-30T12:09:14.326Z,29.52
2019-04-30T12:10:14.317Z,29.64
2019-04-30T12:11:15.414Z,29.69
2019-04-30T12:12:14.305Z,29.69
2019-04-30T12:13:14.294Z,29.83
2019-04-30T12:14:14.289Z,29.79
2019-04-30T12:15:14.282Z,29.87
2019-04-30T12:16:14.274Z,29.87
2019-04-30T12:17:14.268Z,29.81
2019-04-30T12:18:14.264Z,29.77
2019-04-30T12:19:14.254Z,29.96
2019-04-30T12:20:14.246Z,29.99
2019-04-30T12:21:14.239Z,29.79
2019-04-30T12:22:14.236Z,29.87
2019-04-30T12:23:14.228Z,30.05
2019-04-30T12:24:14.219Z,29.98
2019-04-30T12:25:14.215Z,30.13
2019-04-30T12:26:14.208Z,30.20
2019-04-30T12:27:14.231Z,30.23
2019-04-30T12:28:14.197Z,30.21
2019-04-30T12:29:14.199Z,30.32
2019-04-30T12:30:14.183Z,30.32
2019-04-30T12:31:14.178Z,30.51
2019-04-30T12:32:14.171Z,30.24
2019-04-30T12:33:14.165Z,30.40
2019-04-30T12:34:14.160Z,30.65
2019-04-30T12:35:14.159Z,30.73
2019-04-30T12:36:14.152Z,30.76
2019-04-30T12:37:14.141Z,30.78
2019-04-30T12:38:14.148Z,30.70
2019-04-30T12:39:14.130Z,30.55
2019-04-30T12:40:28.123Z,30.46
2019-04-30T12:41:14.123Z,30.62
2019-04-30T12:42:14.111Z,30.70
2019-04-30T12:43:14.105Z,30.77
2019-04-30T12:44:14.104Z,30.86
2019-04-30T12:45:14.094Z,30.76
2019-04-30T12:46:14.087Z,30.96
2019-04-30T12:47:14.084Z,31.07
2019-04-30T12:48:14.074Z,31.04
2019-04-30T12:49:14.088Z,31.20
2019-04-30T12:50:14.064Z,31.29
2019-04-30T12:51:14.061Z,31.41
2019-04-30T12:52:14.052Z,31.29